Guernsey, WY (82214)

12:57 AM MDT on October 23, 2014 (GMT -0600)
RAWS CASPER PORTABLE WY US | Change Station
CLOSE
Current Station
Personal Weather Station
Location: Hartville, WY
Elevation: 4785 ft
Nearby Weather Stations

Elev 4785 ft 42.39 °N, 104.81 °W | Updated 56 minutes ago

Clear
Clear
39 °F
Feels Like 36 °F
N
4
Wind Variable Wind from East
Gusts 8.0 mph

Today
High -- | Low -- °F
--% Chance of Precip.
Yesterday
High -- | Low -- °F
Precip. -- in
7:21 AM 6:04 PM
Waning Crescent, 0% visible
Pressure 30.03 in
Visibility 10.0 miles
Clouds Clear
Windchill 36 °F
Dew Point 13 °F
Humidity 34%
Rainfall 0.00 in
Snow Depth Not available.
UV 0 out of 12
Pollen 2.30 out of 12
Air Quality Not available.
Flu Activity Sporadic
METAR KTOR 230653Z AUTO 26003KT 10SM CLR 08/M05 A3009 RMK AO2 SLP169 T00781050 401940039

More Conditions Fewer Conditions

Pressure 30.03 in
Visibility 10.0 miles
Clouds Clear
Windchill 36 °F
Dew Point 13 °F
Humidity 34%
Rainfall 0.00 in
Snow Depth Not available.
UV 0 out of 12
Pollen 2.30 out of 12
Air Quality Not available.
Flu Activity Sporadic
METAR KTOR 230653Z AUTO 26003KT 10SM CLR 08/M05 A3009 RMK AO2 SLP169 T00781050 401940039

More Conditions Fewer Conditions

10-Day Weather Forecast

Almanac

Astronomy

Oct. 23, 2014 Rise Set
Actual Time 7:21 AM MDT 6:04 PM MDT
Civil Twilight 6:52 AM MDT 6:33 PM MDT
Nautical Twilight 6:19 AM MDT 7:06 PM MDT
Astronomical Twilight 5:47 AM MDT 7:38 PM MDT
Moon 7:03 AM MDT 6:07 PM MDT
Length of Visible Light 11h 40m
Length of Day
10h 43m
Tomorrow will be 2m 39s shorter.
Waning Crescent, 0% of the Moon is Illuminated
Today
Waning Crescent
Oct 23
New
Oct 30
First Quarter
Nov 6
Full
Nov 14
Last Quarter

Today's Extremes

State Highs State Lows

Community

WunderPhotos

Upload Photos

1,764,194 photos uploaded!

Nearby

Snow Depth

Station Depth Elevation
Windy Peak 1 in 7900 ft
Laprele Creek 1 in 8375 ft
Reno Hill 1 in 8500 ft
Crow Creek 1 in 8330 ft
Casper Mountain 0 in 7850 ft

Earthquake Activity

City Distance Mag. Time & Date
No recent earthquake activity has been reported nearby.
Minimum magnitude displayed is 2.5.

Coastal Water Temperatures

Place Temperature
No Stations Reporting

Nearby Weather Stations